AirNav   ProFlight Series 2 Aviation Headset
 
 904 users online  

56MI Beaumont Dearborn Heliport
Dearborn, Michigan, USA

GOING TO DEARBORN?


FAA INFORMATION EFFECTIVE 18 JUNE 2020

Location

FAA Identifier: 56MI
Lat/Long: 42-17-23.7200N 083-12-56.7200W
42-17.395333N 083-12.945333W
42.2899222,-83.2157556
(estimated)
Elevation: 597 ft. / 182 m (estimated)
Variation: 06W (1995)
Time zone: UTC -4 (UTC -5 during Standard Time)
Zip code: 48124

Heliport Operations

Heliport use: Private use, MEDICAL USE.
Activation date: 08/1998
Control tower: no
ARTCC: CLEVELAND CENTER
FSS: LANSING FLIGHT SERVICE STATION
Attendance: CONTINUOUS
Segmented circle: no
Lights: FOR FLOOD LGT CALL 313-593-7720

Heliport Communications

WX ASOS at DTW (8 nm SW): 133.675 (734-955-5015)
WX ASOS at DET (12 nm NE): PHONE 313-371-9696
WX AWOS-3 at ONZ (12 nm S): 119.675 (734-692-9686)
WX ASOS at YIP (14 nm W): PHONE 734-961-6843
WX AWOS-3 at VLL (15 nm N): 119.475 (248-288-4649)

Nearby radio navigation aids

VOR radial/distance  VOR name  Freq  Var
DXOr061/8.1DETROIT VOR/DME113.4006W
CRLr040/18.1CARLETON VOR/DME115.7003W
SVMr116/18.2SALEM VORTAC114.3003W

 
NDB name  Hdg/Dist  Freq  Var  ID
GROSSE ILE353/11.741907WRYS .-. -.-- ...
TECUMSEH069/33.523906WTCU - -.-. ..-

Heliport Services

Runway Information

Helipad H1

Dimensions: 60 x 60 ft. / 18 x 18 m
Surface: concrete
CIRCULAR PAD.
Runway edge lights: FLD
Latitude: 42-17.395333N
Longitude: 083-12.945333W
Elevation: 597.0 ft.
Traffic pattern: leftleft

Heliport Ownership and Management from official FAA records

Ownership: Privately-owned
Owner: OAKWOOD HOSPITAL
18101 OAKWOOD BLVD
DEARBORN, MI 48124-2500
Phone (313) 593-7720
Manager: SCOTT STOCKINGER
18101 OAKWOOD BLVD
DEARBORN, MI 48124-2500
Phone (313) 982-5811

Additional Remarks

FOR CD CTC DETROIT APCH AT 800-499-8181.

Instrument Procedures

There are no published instrument procedures at 56MI.

Some nearby airports with instrument procedures:

KDTW - Detroit Metropolitan Wayne County Airport (8 nm SW)
1D2 - Canton-Plymouth-Mettetal Airport (11 nm W)
KDET - Coleman A Young Municipal Airport (12 nm NE)
KONZ - Grosse Ile Municipal Airport (12 nm S)
KYIP - Willow Run Airport (14 nm W)
KVLL - Oakland/Troy Airport (15 nm N)
 
Loc | Ops | Rwys | IFR | FBO | Links
Com | Nav | Svcs | Stats | Notes
Area around 56MI (Beaumont Dearborn Heliport)
 
Road maps at: MapQuest Bing Google
 
Aerial photo
No photo
 
Sectional chart

 
Airport distance calculator
Flying to Beaumont Dearborn Heliport? Find the distance to fly.

From to 56MI

Sunrise and sunset
Times for 07-Jul-2020
 Local
(UTC-4)
 Zulu
(UTC)
Morning civil twilight05:3109:31
Sunrise06:0510:05
Sunset21:1101:11
Evening civil twilight21:4501:45

Current date and time
Zulu (UTC)  08-Jul-2020 01:13:17
Local (UTC-4)  07-Jul-2020 21:13:17
 
METAR
KDTW 
6nm SW 
080102Z 16013G22KT 4SM R03R/1000VP6000FT -TSRA BKN030 OVC055CB 25/18 A2995 RMK AO2 LTG DSNT E FRQ LTGICCG SE TS SE MOV SE T02500178 PNO $
KDET 
11nm NE 
080053Z 12005KT 10SM VCTS SCT100 23/20 A2993 RMK AO2 PK WND 07027/2357 WSHFT 2341 LTG DSNT E-SW RAE14 TSE26 SLP130 P0005 T02330200
CYQG 
11nm E 
080106Z AUTO 23010KT 100V250 7SM -TSRA FEW028 OVC065 25/22 A2996 RMK LTNG DIST ALQDS PRESRR RVR MISG SLP141 DENSITY ALT 1800FT
KONZ 
12nm S 
080056Z AUTO 04003KT 10SM BKN070 BKN100 28/20 A2992 RMK AO2 T02840203
KYIP 
15nm W 
080053Z 09006KT 10SM VCTS BKN065 29/21 A2994 RMK AO2 LTG DSNT E SLP129 T02940211
KVLL 
15nm N 
080055Z AUTO 00000KT 10SM BKN110 29/18 A2995 RMK AO2 T02880180
TAF
KDTW 
6nm SW 
080025Z 0800/0906 27007KT P6SM VCTS SCT070CB BKN100 TEMPO 0800/0801 22016G24KT 3SM TSRA SCT060CB BKN100 FM080200 27003KT P6SM FEW070 FM080900 VRB03KT P6SM SCT100 FM081600 VRB05KT P6SM SCT060 BKN100 FM082000 16006KT P6SM SCT060 BKN150 FM090000 12003KT P6SM SCT250
KDET 
11nm NE 
071720Z 0718/0818 27007KT P6SM SCT070 TEMPO 0720/0723 6SM -SHRA BKN070 FM080100 27003KT P6SM FEW070 FM080900 VRB03KT P6SM SCT100 FM081600 VRB05KT P6SM SCT060 BKN100
CYQG 
11nm E 
072307Z 0723/0818 24010KT P6SM SCT070 TEMPO 0723/0801 VRB20G40KT 2SM TSRA BR SCT030 BKN060CB FM080200 05006KT P6SM FEW080 BECMG 0804/0805 VRB03KT FM081700 12007KT P6SM BKN060 RMK FCST BASED ON AUTO OBS. NXT FCST BY 080000Z
KYIP 
15nm W 
071720Z 0718/0818 27007KT P6SM SCT070 TEMPO 0720/0723 6SM -SHRA BKN070 FM080100 27003KT P6SM FEW070 FM080900 VRB03KT P6SM SCT100 FM081600 VRB05KT P6SM SCT060 BKN100
NOTAMs
Click for the latest NOTAMs
NOTAMs are issued by the DoD/FAA and will open in a separate window not controlled by AirNav.

 

 
 

Would you like to see your business listed on this page?

 If your business provides an interesting product or service to pilots, flight crews, aircraft, or users of the Beaumont Dearborn Heliport, you should consider listing it here.  To start the listing process, click on the button below
 
Add a business
 

Other Pages about Beaumont Dearborn Heliport

Update a link
 
Copyright © AirNav, LLC. All rights reserved. Privacy Policy  Contact